sensor_id;sensor_type;location;lat;lon;timestamp;P1;durP1;ratioP1;P2;durP2;ratioP2
45548;SDS011;31270;48.328;10.096;2024-02-28T00:01:18;41.90;;;22.23;;
45548;SDS011;31270;48.328;10.096;2024-02-28T00:03:44;43.27;;;21.87;;
45548;SDS011;31270;48.328;10.096;2024-02-28T00:06:10;43.77;;;22.27;;
45548;SDS011;31270;48.328;10.096;2024-02-28T00:08:41;40.37;;;22.27;;
45548;SDS011;31270;48.328;10.096;2024-02-28T00:11:07;44.47;;;23.23;;
45548;SDS011;31270;48.328;10.096;2024-02-28T00:13:33;42.03;;;22.30;;
45548;SDS011;31270;48.328;10.096;2024-02-28T00:15:58;46.20;;;23.70;;
45548;SDS011;31270;48.328;10.096;2024-02-28T00:18:24;41.33;;;22.47;;
45548;SDS011;31270;48.328;10.096;2024-02-28T00:20:49;43.87;;;22.63;;
45548;SDS011;31270;48.328;10.096;2024-02-28T00:23:15;41.90;;;22.97;;
45548;SDS011;31270;48.328;10.096;2024-02-28T00:25:41;46.17;;;22.67;;
45548;SDS011;31270;48.328;10.096;2024-02-28T00:28:06;45.70;;;23.70;;
45548;SDS011;31270;48.328;10.096;2024-02-28T00:30:32;43.23;;;22.30;;
45548;SDS011;31270;48.328;10.096;2024-02-28T00:32:58;43.17;;;23.90;;
45548;SDS011;31270;48.328;10.096;2024-02-28T00:35:24;45.20;;;23.17;;
45548;SDS011;31270;48.328;10.096;2024-02-28T00:37:50;45.63;;;23.73;;
45548;SDS011;31270;48.328;10.096;2024-02-28T00:40:16;39.57;;;21.13;;
45548;SDS011;31270;48.328;10.096;2024-02-28T00:42:42;42.20;;;23.33;;
45548;SDS011;31270;48.328;10.096;2024-02-28T00:45:08;43.73;;;23.40;;
45548;SDS011;31270;48.328;10.096;2024-02-28T00:47:34;42.70;;;23.13;;
45548;SDS011;31270;48.328;10.096;2024-02-28T00:50:00;46.70;;;24.17;;
45548;SDS011;31270;48.328;10.096;2024-02-28T00:52:28;45.80;;;23.63;;
45548;SDS011;31270;48.328;10.096;2024-02-28T00:54:54;42.80;;;22.93;;
45548;SDS011;31270;48.328;10.096;2024-02-28T00:57:20;46.27;;;22.97;;
45548;SDS011;31270;48.328;10.096;2024-02-28T00:59:45;44.50;;;22.97;;
45548;SDS011;31270;48.328;10.096;2024-02-28T01:02:11;43.87;;;23.63;;
45548;SDS011;31270;48.328;10.096;2024-02-28T01:04:38;46.60;;;24.83;;
45548;SDS011;31270;48.328;10.096;2024-02-28T01:07:05;45.97;;;25.00;;
45548;SDS011;31270;48.328;10.096;2024-02-28T01:09:30;47.50;;;24.27;;
45548;SDS011;31270;48.328;10.096;2024-02-28T01:11:56;48.13;;;25.43;;
45548;SDS011;31270;48.328;10.096;2024-02-28T01:14:22;48.10;;;24.77;;
45548;SDS011;31270;48.328;10.096;2024-02-28T01:16:48;51.30;;;24.13;;
45548;SDS011;31270;48.328;10.096;2024-02-28T01:19:15;46.80;;;24.63;;
45548;SDS011;31270;48.328;10.096;2024-02-28T01:21:41;51.47;;;24.97;;
45548;SDS011;31270;48.328;10.096;2024-02-28T01:24:06;50.90;;;25.17;;
45548;SDS011;31270;48.328;10.096;2024-02-28T01:26:32;53.60;;;24.73;;
45548;SDS011;31270;48.328;10.096;2024-02-28T01:28:58;54.90;;;26.27;;
45548;SDS011;31270;48.328;10.096;2024-02-28T01:31:23;47.80;;;23.87;;
45548;SDS011;31270;48.328;10.096;2024-02-28T01:33:49;52.33;;;24.90;;
45548;SDS011;31270;48.328;10.096;2024-02-28T01:36:15;47.60;;;23.80;;
45548;SDS011;31270;48.328;10.096;2024-02-28T01:38:40;54.40;;;24.83;;
45548;SDS011;31270;48.328;10.096;2024-02-28T01:41:06;51.37;;;24.10;;
45548;SDS011;31270;48.328;10.096;2024-02-28T01:43:31;51.33;;;25.70;;
45548;SDS011;31270;48.328;10.096;2024-02-28T01:45:59;51.23;;;25.20;;
45548;SDS011;31270;48.328;10.096;2024-02-28T01:48:28;49.03;;;24.47;;
45548;SDS011;31270;48.328;10.096;2024-02-28T01:50:55;49.37;;;24.90;;
45548;SDS011;31270;48.328;10.096;2024-02-28T01:53:20;48.63;;;24.97;;
45548;SDS011;31270;48.328;10.096;2024-02-28T01:55:47;49.57;;;25.43;;
45548;SDS011;31270;48.328;10.096;2024-02-28T01:58:13;51.50;;;25.03;;
45548;SDS011;31270;48.328;10.096;2024-02-28T02:00:38;52.73;;;25.17;;
45548;SDS011;31270;48.328;10.096;2024-02-28T02:03:05;49.47;;;24.80;;
45548;SDS011;31270;48.328;10.096;2024-02-28T02:05:36;50.17;;;24.87;;
45548;SDS011;31270;48.328;10.096;2024-02-28T02:08:02;50.50;;;25.27;;
45548;SDS011;31270;48.328;10.096;2024-02-28T02:10:28;50.83;;;24.27;;
45548;SDS011;31270;48.328;10.096;2024-02-28T02:12:53;57.23;;;26.30;;
45548;SDS011;31270;48.328;10.096;2024-02-28T02:15:19;54.70;;;26.27;;
45548;SDS011;31270;48.328;10.096;2024-02-28T02:17:45;50.10;;;24.33;;
45548;SDS011;31270;48.328;10.096;2024-02-28T02:20:11;51.13;;;24.90;;
45548;SDS011;31270;48.328;10.096;2024-02-28T02:22:39;51.17;;;24.90;;
45548;SDS011;31270;48.328;10.096;2024-02-28T02:25:05;50.20;;;25.63;;
45548;SDS011;31270;48.328;10.096;2024-02-28T02:27:31;56.27;;;25.07;;
45548;SDS011;31270;48.328;10.096;2024-02-28T02:29:57;50.77;;;25.63;;
45548;SDS011;31270;48.328;10.096;2024-02-28T02:32:22;52.40;;;26.00;;
45548;SDS011;31270;48.328;10.096;2024-02-28T02:34:49;53.97;;;25.77;;
45548;SDS011;31270;48.328;10.096;2024-02-28T02:37:14;56.57;;;26.83;;
45548;SDS011;31270;48.328;10.096;2024-02-28T02:39:40;53.40;;;24.60;;
45548;SDS011;31270;48.328;10.096;2024-02-28T02:42:06;51.30;;;25.27;;
45548;SDS011;31270;48.328;10.096;2024-02-28T02:44:31;47.00;;;24.73;;
45548;SDS011;31270;48.328;10.096;2024-02-28T02:46:57;49.07;;;25.40;;
45548;SDS011;31270;48.328;10.096;2024-02-28T02:49:23;61.50;;;26.07;;
45548;SDS011;31270;48.328;10.096;2024-02-28T02:51:49;52.10;;;26.63;;
45548;SDS011;31270;48.328;10.096;2024-02-28T02:54:14;55.77;;;27.03;;
45548;SDS011;31270;48.328;10.096;2024-02-28T02:56:43;55.43;;;25.70;;
45548;SDS011;31270;48.328;10.096;2024-02-28T02:59:12;51.40;;;25.20;;
45548;SDS011;31270;48.328;10.096;2024-02-28T03:01:37;54.87;;;26.47;;
45548;SDS011;31270;48.328;10.096;2024-02-28T03:04:03;61.00;;;28.77;;
45548;SDS011;31270;48.328;10.096;2024-02-28T03:06:29;54.10;;;27.00;;
45548;SDS011;31270;48.328;10.096;2024-02-28T03:08:55;54.30;;;26.97;;
45548;SDS011;31270;48.328;10.096;2024-02-28T03:11:20;56.20;;;26.30;;
45548;SDS011;31270;48.328;10.096;2024-02-28T03:13:46;58.17;;;25.90;;
45548;SDS011;31270;48.328;10.096;2024-02-28T03:16:11;56.57;;;27.00;;
45548;SDS011;31270;48.328;10.096;2024-02-28T03:18:37;51.47;;;25.87;;
45548;SDS011;31270;48.328;10.096;2024-02-28T03:21:03;55.43;;;26.37;;
45548;SDS011;31270;48.328;10.096;2024-02-28T03:23:29;52.47;;;26.50;;
45548;SDS011;31270;48.328;10.096;2024-02-28T03:25:54;58.27;;;26.90;;
45548;SDS011;31270;48.328;10.096;2024-02-28T03:28:20;52.70;;;25.90;;
45548;SDS011;31270;48.328;10.096;2024-02-28T03:30:45;55.20;;;27.40;;
45548;SDS011;31270;48.328;10.096;2024-02-28T03:33:11;58.20;;;26.80;;
45548;SDS011;31270;48.328;10.096;2024-02-28T03:35:36;52.17;;;25.57;;
45548;SDS011;31270;48.328;10.096;2024-02-28T03:38:02;63.70;;;27.27;;
45548;SDS011;31270;48.328;10.096;2024-02-28T03:40:28;56.40;;;27.03;;
45548;SDS011;31270;48.328;10.096;2024-02-28T03:42:53;58.97;;;26.63;;
45548;SDS011;31270;48.328;10.096;2024-02-28T03:45:19;61.30;;;28.07;;
45548;SDS011;31270;48.328;10.096;2024-02-28T03:47:45;56.93;;;28.10;;
45548;SDS011;31270;48.328;10.096;2024-02-28T03:50:10;53.67;;;26.27;;
45548;SDS011;31270;48.328;10.096;2024-02-28T03:52:36;58.90;;;27.43;;
45548;SDS011;31270;48.328;10.096;2024-02-28T03:55:01;60.93;;;27.97;;
45548;SDS011;31270;48.328;10.096;2024-02-28T03:57:28;60.83;;;27.83;;
45548;SDS011;31270;48.328;10.096;2024-02-28T03:59:53;63.70;;;26.43;;
45548;SDS011;31270;48.328;10.096;2024-02-28T04:02:19;54.03;;;26.60;;
45548;SDS011;31270;48.328;10.096;2024-02-28T04:04:45;55.17;;;26.23;;
45548;SDS011;31270;48.328;10.096;2024-02-28T04:07:10;56.73;;;28.60;;
45548;SDS011;31270;48.328;10.096;2024-02-28T04:09:36;59.00;;;27.73;;
45548;SDS011;31270;48.328;10.096;2024-02-28T04:12:01;61.47;;;28.17;;
45548;SDS011;31270;48.328;10.096;2024-02-28T04:14:28;53.40;;;27.10;;
45548;SDS011;31270;48.328;10.096;2024-02-28T04:16:53;61.13;;;27.27;;
45548;SDS011;31270;48.328;10.096;2024-02-28T04:19:19;60.30;;;26.70;;
45548;SDS011;31270;48.328;10.096;2024-02-28T04:21:45;61.63;;;28.13;;
45548;SDS011;31270;48.328;10.096;2024-02-28T04:24:10;64.97;;;29.00;;
45548;SDS011;31270;48.328;10.096;2024-02-28T04:26:36;56.77;;;27.80;;
45548;SDS011;31270;48.328;10.096;2024-02-28T04:29:01;56.53;;;27.50;;
45548;SDS011;31270;48.328;10.096;2024-02-28T04:31:32;58.30;;;27.47;;
45548;SDS011;31270;48.328;10.096;2024-02-28T04:33:58;60.37;;;28.37;;
45548;SDS011;31270;48.328;10.096;2024-02-28T04:36:24;60.17;;;28.00;;
45548;SDS011;31270;48.328;10.096;2024-02-28T04:38:49;66.10;;;28.83;;
45548;SDS011;31270;48.328;10.096;2024-02-28T04:41:15;64.03;;;29.67;;
45548;SDS011;31270;48.328;10.096;2024-02-28T04:43:40;64.07;;;27.37;;
45548;SDS011;31270;48.328;10.096;2024-02-28T04:46:06;58.63;;;27.97;;
45548;SDS011;31270;48.328;10.096;2024-02-28T04:48:32;60.83;;;29.27;;
45548;SDS011;31270;48.328;10.096;2024-02-28T04:50:57;57.27;;;27.03;;
45548;SDS011;31270;48.328;10.096;2024-02-28T04:53:24;56.60;;;26.97;;
45548;SDS011;31270;48.328;10.096;2024-02-28T04:55:49;55.73;;;27.90;;
45548;SDS011;31270;48.328;10.096;2024-02-28T04:58:17;59.23;;;28.00;;
45548;SDS011;31270;48.328;10.096;2024-02-28T05:00:43;61.23;;;27.57;;
45548;SDS011;31270;48.328;10.096;2024-02-28T05:03:09;59.83;;;27.10;;
45548;SDS011;31270;48.328;10.096;2024-02-28T05:05:35;60.73;;;27.57;;
45548;SDS011;31270;48.328;10.096;2024-02-28T05:08:01;59.40;;;28.43;;
45548;SDS011;31270;48.328;10.096;2024-02-28T05:10:26;63.80;;;27.60;;
45548;SDS011;31270;48.328;10.096;2024-02-28T05:12:52;57.50;;;26.73;;
45548;SDS011;31270;48.328;10.096;2024-02-28T05:15:18;63.23;;;27.33;;
45548;SDS011;31270;48.328;10.096;2024-02-28T05:17:44;58.50;;;27.20;;
45548;SDS011;31270;48.328;10.096;2024-02-28T05:20:10;60.27;;;26.10;;
45548;SDS011;31270;48.328;10.096;2024-02-28T05:22:36;64.50;;;25.70;;
45548;SDS011;31270;48.328;10.096;2024-02-28T05:25:02;64.13;;;26.53;;
45548;SDS011;31270;48.328;10.096;2024-02-28T05:27:28;61.47;;;27.00;;
45548;SDS011;31270;48.328;10.096;2024-02-28T05:29:53;58.23;;;26.93;;
45548;SDS011;31270;48.328;10.096;2024-02-28T05:32:19;66.17;;;28.73;;
45548;SDS011;31270;48.328;10.096;2024-02-28T05:34:46;59.53;;;25.87;;
45548;SDS011;31270;48.328;10.096;2024-02-28T05:37:11;58.30;;;26.67;;
45548;SDS011;31270;48.328;10.096;2024-02-28T05:39:37;54.87;;;26.13;;
45548;SDS011;31270;48.328;10.096;2024-02-28T05:42:03;65.67;;;26.97;;
45548;SDS011;31270;48.328;10.096;2024-02-28T05:44:29;64.33;;;28.33;;
45548;SDS011;31270;48.328;10.096;2024-02-28T05:46:55;60.20;;;26.10;;
45548;SDS011;31270;48.328;10.096;2024-02-28T05:49:20;60.53;;;27.40;;
45548;SDS011;31270;48.328;10.096;2024-02-28T05:51:50;56.43;;;25.70;;
45548;SDS011;31270;48.328;10.096;2024-02-28T05:54:19;59.77;;;26.93;;
45548;SDS011;31270;48.328;10.096;2024-02-28T05:56:44;56.47;;;26.23;;
45548;SDS011;31270;48.328;10.096;2024-02-28T05:59:10;56.53;;;24.77;;
45548;SDS011;31270;48.328;10.096;2024-02-28T06:01:36;61.30;;;25.97;;
45548;SDS011;31270;48.328;10.096;2024-02-28T06:04:03;54.83;;;24.83;;
45548;SDS011;31270;48.328;10.096;2024-02-28T06:06:28;56.27;;;25.53;;
45548;SDS011;31270;48.328;10.096;2024-02-28T06:08:54;54.67;;;25.87;;
45548;SDS011;31270;48.328;10.096;2024-02-28T06:11:21;56.70;;;25.53;;
45548;SDS011;31270;48.328;10.096;2024-02-28T06:13:47;56.00;;;25.63;;
45548;SDS011;31270;48.328;10.096;2024-02-28T06:16:14;54.53;;;25.57;;
45548;SDS011;31270;48.328;10.096;2024-02-28T06:18:41;56.07;;;26.93;;
45548;SDS011;31270;48.328;10.096;2024-02-28T06:21:10;55.33;;;24.80;;
45548;SDS011;31270;48.328;10.096;2024-02-28T06:23:39;52.40;;;24.13;;
45548;SDS011;31270;48.328;10.096;2024-02-28T06:26:04;55.73;;;25.67;;
45548;SDS011;31270;48.328;10.096;2024-02-28T06:28:30;57.63;;;26.10;;
45548;SDS011;31270;48.328;10.096;2024-02-28T06:30:57;54.00;;;24.30;;
45548;SDS011;31270;48.328;10.096;2024-02-28T06:33:23;52.07;;;24.73;;
45548;SDS011;31270;48.328;10.096;2024-02-28T06:35:48;53.30;;;24.30;;
45548;SDS011;31270;48.328;10.096;2024-02-28T06:38:14;53.47;;;24.90;;
45548;SDS011;31270;48.328;10.096;2024-02-28T06:40:40;50.30;;;23.63;;
45548;SDS011;31270;48.328;10.096;2024-02-28T06:43:06;50.60;;;23.77;;
45548;SDS011;31270;48.328;10.096;2024-02-28T06:45:32;56.20;;;25.43;;
45548;SDS011;31270;48.328;10.096;2024-02-28T06:47:57;51.93;;;25.23;;
45548;SDS011;31270;48.328;10.096;2024-02-28T06:50:23;47.13;;;23.57;;
45548;SDS011;31270;48.328;10.096;2024-02-28T06:52:49;44.23;;;23.00;;
45548;SDS011;31270;48.328;10.096;2024-02-28T06:55:15;49.90;;;24.37;;
45548;SDS011;31270;48.328;10.096;2024-02-28T06:57:41;48.03;;;23.17;;
45548;SDS011;31270;48.328;10.096;2024-02-28T07:00:08;53.43;;;23.87;;
45548;SDS011;31270;48.328;10.096;2024-02-28T07:02:35;49.43;;;24.13;;
45548;SDS011;31270;48.328;10.096;2024-02-28T07:05:01;50.73;;;23.70;;
45548;SDS011;31270;48.328;10.096;2024-02-28T07:07:28;53.03;;;23.80;;
45548;SDS011;31270;48.328;10.096;2024-02-28T07:09:54;48.20;;;24.43;;
45548;SDS011;31270;48.328;10.096;2024-02-28T07:12:19;52.20;;;23.80;;
45548;SDS011;31270;48.328;10.096;2024-02-28T07:14:45;49.03;;;21.67;;
45548;SDS011;31270;48.328;10.096;2024-02-28T07:17:11;46.03;;;22.13;;
45548;SDS011;31270;48.328;10.096;2024-02-28T07:19:36;52.80;;;24.47;;
45548;SDS011;31270;48.328;10.096;2024-02-28T07:22:02;50.20;;;23.40;;
45548;SDS011;31270;48.328;10.096;2024-02-28T07:24:32;50.03;;;22.03;;
45548;SDS011;31270;48.328;10.096;2024-02-28T07:26:58;52.13;;;23.47;;
45548;SDS011;31270;48.328;10.096;2024-02-28T07:29:23;54.37;;;24.23;;
45548;SDS011;31270;48.328;10.096;2024-02-28T07:31:49;47.33;;;21.93;;
45548;SDS011;31270;48.328;10.096;2024-02-28T07:34:15;47.47;;;23.17;;
45548;SDS011;31270;48.328;10.096;2024-02-28T07:36:41;49.00;;;22.30;;
45548;SDS011;31270;48.328;10.096;2024-02-28T07:39:06;47.03;;;22.30;;
45548;SDS011;31270;48.328;10.096;2024-02-28T07:41:32;50.70;;;23.43;;
45548;SDS011;31270;48.328;10.096;2024-02-28T07:43:58;44.87;;;21.47;;
45548;SDS011;31270;48.328;10.096;2024-02-28T07:46:24;51.90;;;24.03;;
45548;SDS011;31270;48.328;10.096;2024-02-28T07:48:49;47.33;;;22.80;;
45548;SDS011;31270;48.328;10.096;2024-02-28T07:51:15;49.57;;;23.53;;
45548;SDS011;31270;48.328;10.096;2024-02-28T07:53:42;51.73;;;23.87;;
45548;SDS011;31270;48.328;10.096;2024-02-28T07:56:15;45.27;;;22.40;;
45548;SDS011;31270;48.328;10.096;2024-02-28T07:58:42;53.00;;;23.40;;
45548;SDS011;31270;48.328;10.096;2024-02-28T08:01:07;56.10;;;24.67;;
45548;SDS011;31270;48.328;10.096;2024-02-28T08:03:34;49.77;;;22.17;;
45548;SDS011;31270;48.328;10.096;2024-02-28T08:06:00;49.40;;;23.77;;
45548;SDS011;31270;48.328;10.096;2024-02-28T08:08:25;53.60;;;23.00;;
45548;SDS011;31270;48.328;10.096;2024-02-28T08:10:51;53.60;;;24.67;;
45548;SDS011;31270;48.328;10.096;2024-02-28T08:13:18;53.43;;;24.10;;
45548;SDS011;31270;48.328;10.096;2024-02-28T08:15:43;57.07;;;25.70;;
45548;SDS011;31270;48.328;10.096;2024-02-28T08:18:09;53.13;;;23.77;;
45548;SDS011;31270;48.328;10.096;2024-02-28T08:20:36;54.83;;;24.53;;
45548;SDS011;31270;48.328;10.096;2024-02-28T08:23:03;49.60;;;22.07;;
45548;SDS011;31270;48.328;10.096;2024-02-28T08:25:31;48.80;;;23.33;;
45548;SDS011;31270;48.328;10.096;2024-02-28T08:27:57;50.33;;;23.73;;
45548;SDS011;31270;48.328;10.096;2024-02-28T08:30:23;54.30;;;24.07;;
45548;SDS011;31270;48.328;10.096;2024-02-28T08:32:50;50.50;;;22.30;;
45548;SDS011;31270;48.328;10.096;2024-02-28T08:35:16;50.57;;;22.07;;
45548;SDS011;31270;48.328;10.096;2024-02-28T08:37:43;46.67;;;22.00;;
45548;SDS011;31270;48.328;10.096;2024-02-28T08:40:09;51.80;;;23.27;;
45548;SDS011;31270;48.328;10.096;2024-02-28T08:42:36;50.70;;;23.23;;
45548;SDS011;31270;48.328;10.096;2024-02-28T08:45:02;52.50;;;23.23;;
45548;SDS011;31270;48.328;10.096;2024-02-28T08:47:29;54.17;;;24.07;;
45548;SDS011;31270;48.328;10.096;2024-02-28T08:49:54;50.97;;;22.77;;
45548;SDS011;31270;48.328;10.096;2024-02-28T08:52:20;58.17;;;22.93;;
45548;SDS011;31270;48.328;10.096;2024-02-28T08:54:46;52.27;;;23.57;;
45548;SDS011;31270;48.328;10.096;2024-02-28T08:57:12;57.07;;;24.63;;
45548;SDS011;31270;48.328;10.096;2024-02-28T08:59:38;52.90;;;24.00;;
45548;SDS011;31270;48.328;10.096;2024-02-28T09:02:05;59.07;;;23.50;;
45548;SDS011;31270;48.328;10.096;2024-02-28T09:04:36;54.93;;;23.77;;
45548;SDS011;31270;48.328;10.096;2024-02-28T09:07:01;53.70;;;23.60;;
45548;SDS011;31270;48.328;10.096;2024-02-28T09:09:27;53.83;;;22.57;;
45548;SDS011;31270;48.328;10.096;2024-02-28T09:11:55;49.53;;;22.47;;
45548;SDS011;31270;48.328;10.096;2024-02-28T09:14:20;51.20;;;23.60;;
45548;SDS011;31270;48.328;10.096;2024-02-28T09:16:47;50.20;;;22.73;;
45548;SDS011;31270;48.328;10.096;2024-02-28T09:19:12;50.73;;;23.13;;
45548;SDS011;31270;48.328;10.096;2024-02-28T09:21:38;46.40;;;22.27;;
45548;SDS011;31270;48.328;10.096;2024-02-28T09:24:04;43.13;;;21.50;;
45548;SDS011;31270;48.328;10.096;2024-02-28T09:26:30;47.30;;;21.33;;
45548;SDS011;31270;48.328;10.096;2024-02-28T09:28:55;46.97;;;22.20;;
45548;SDS011;31270;48.328;10.096;2024-02-28T09:31:21;48.47;;;23.00;;
45548;SDS011;31270;48.328;10.096;2024-02-28T09:33:46;51.30;;;23.43;;
45548;SDS011;31270;48.328;10.096;2024-02-28T09:36:13;47.07;;;22.67;;
45548;SDS011;31270;48.328;10.096;2024-02-28T09:38:39;46.53;;;22.53;;
45548;SDS011;31270;48.328;10.096;2024-02-28T09:41:06;45.00;;;21.20;;
45548;SDS011;31270;48.328;10.096;2024-02-28T09:43:32;52.60;;;26.23;;
45548;SDS011;31270;48.328;10.096;2024-02-28T09:46:05;50.23;;;21.87;;
45548;SDS011;31270;48.328;10.096;2024-02-28T09:48:35;46.20;;;22.33;;
45548;SDS011;31270;48.328;10.096;2024-02-28T09:51:03;43.87;;;21.17;;
45548;SDS011;31270;48.328;10.096;2024-02-28T09:53:29;45.30;;;22.17;;
45548;SDS011;31270;48.328;10.096;2024-02-28T09:55:58;47.80;;;21.33;;
45548;SDS011;31270;48.328;10.096;2024-02-28T09:58:27;44.53;;;21.87;;
45548;SDS011;31270;48.328;10.096;2024-02-28T10:00:59;48.10;;;22.23;;
45548;SDS011;31270;48.328;10.096;2024-02-28T10:03:30;45.47;;;21.67;;
45548;SDS011;31270;48.328;10.096;2024-02-28T10:05:57;45.40;;;21.23;;
45548;SDS011;31270;48.328;10.096;2024-02-28T10:08:23;42.47;;;21.50;;
45548;SDS011;31270;48.328;10.096;2024-02-28T10:10:48;47.97;;;21.47;;
45548;SDS011;31270;48.328;10.096;2024-02-28T10:13:17;45.23;;;22.33;;
45548;SDS011;31270;48.328;10.096;2024-02-28T10:15:43;41.93;;;20.87;;
45548;SDS011;31270;48.328;10.096;2024-02-28T10:18:10;43.73;;;20.47;;
45548;SDS011;31270;48.328;10.096;2024-02-28T10:20:35;46.67;;;22.57;;
45548;SDS011;31270;48.328;10.096;2024-02-28T10:23:05;47.63;;;21.60;;
45548;SDS011;31270;48.328;10.096;2024-02-28T10:25:41;46.43;;;22.40;;
45548;SDS011;31270;48.328;10.096;2024-02-28T10:28:10;43.33;;;21.57;;
45548;SDS011;31270;48.328;10.096;2024-02-28T10:30:40;45.17;;;22.00;;
45548;SDS011;31270;48.328;10.096;2024-02-28T10:33:13;48.77;;;22.43;;
45548;SDS011;31270;48.328;10.096;2024-02-28T10:35:40;43.17;;;21.20;;
45548;SDS011;31270;48.328;10.096;2024-02-28T10:38:11;45.37;;;21.43;;
45548;SDS011;31270;48.328;10.096;2024-02-28T10:40:37;44.07;;;21.00;;
45548;SDS011;31270;48.328;10.096;2024-02-28T10:43:10;44.50;;;21.60;;
45548;SDS011;31270;48.328;10.096;2024-02-28T10:45:37;43.43;;;21.10;;
45548;SDS011;31270;48.328;10.096;2024-02-28T10:48:04;50.50;;;23.87;;
45548;SDS011;31270;48.328;10.096;2024-02-28T10:50:30;43.50;;;21.60;;
45548;SDS011;31270;48.328;10.096;2024-02-28T10:52:58;46.97;;;21.90;;
45548;SDS011;31270;48.328;10.096;2024-02-28T10:55:27;43.23;;;20.77;;
45548;SDS011;31270;48.328;10.096;2024-02-28T10:58:06;41.50;;;20.33;;
45548;SDS011;31270;48.328;10.096;2024-02-28T11:00:33;40.70;;;20.67;;
45548;SDS011;31270;48.328;10.096;2024-02-28T11:03:00;45.33;;;20.77;;
45548;SDS011;31270;48.328;10.096;2024-02-28T11:08:10;51.60;;;24.67;;
45548;SDS011;31270;48.328;10.096;2024-02-28T11:10:45;49.07;;;21.13;;
45548;SDS011;31270;48.328;10.096;2024-02-28T11:13:23;42.43;;;22.30;;
45548;SDS011;31270;48.328;10.096;2024-02-28T11:15:50;49.57;;;20.23;;
45548;SDS011;31270;48.328;10.096;2024-02-28T11:18:16;44.63;;;21.37;;
45548;SDS011;31270;48.328;10.096;2024-02-28T11:20:42;48.63;;;22.23;;
45548;SDS011;31270;48.328;10.096;2024-02-28T11:23:11;45.27;;;20.90;;
45548;SDS011;31270;48.328;10.096;2024-02-28T11:25:39;46.13;;;20.47;;
45548;SDS011;31270;48.328;10.096;2024-02-28T11:28:05;43.97;;;22.37;;
45548;SDS011;31270;48.328;10.096;2024-02-28T11:30:31;42.53;;;20.77;;
45548;SDS011;31270;48.328;10.096;2024-02-28T11:32:57;41.83;;;21.53;;
45548;SDS011;31270;48.328;10.096;2024-02-28T11:35:25;42.83;;;20.73;;
45548;SDS011;31270;48.328;10.096;2024-02-28T11:37:52;43.50;;;21.50;;
45548;SDS011;31270;48.328;10.096;2024-02-28T11:40:22;46.23;;;22.47;;
45548;SDS011;31270;48.328;10.096;2024-02-28T11:42:50;48.27;;;22.43;;
45548;SDS011;31270;48.328;10.096;2024-02-28T11:45:16;48.73;;;22.90;;
45548;SDS011;31270;48.328;10.096;2024-02-28T11:47:42;44.57;;;21.20;;
45548;SDS011;31270;48.328;10.096;2024-02-28T11:50:08;45.87;;;21.70;;
45548;SDS011;31270;48.328;10.096;2024-02-28T11:52:33;43.10;;;21.43;;
45548;SDS011;31270;48.328;10.096;2024-02-28T11:54:59;40.63;;;20.83;;
45548;SDS011;31270;48.328;10.096;2024-02-28T11:57:28;41.50;;;20.33;;
45548;SDS011;31270;48.328;10.096;2024-02-28T11:59:55;64.70;;;31.03;;
45548;SDS011;31270;48.328;10.096;2024-02-28T12:02:22;47.20;;;23.13;;
45548;SDS011;31270;48.328;10.096;2024-02-28T12:04:52;61.87;;;30.07;;
45548;SDS011;31270;48.328;10.096;2024-02-28T12:07:19;73.80;;;36.53;;
45548;SDS011;31270;48.328;10.096;2024-02-28T12:09:45;59.53;;;29.90;;
45548;SDS011;31270;48.328;10.096;2024-02-28T12:12:13;54.17;;;26.33;;
45548;SDS011;31270;48.328;10.096;2024-02-28T12:14:46;61.67;;;28.47;;
45548;SDS011;31270;48.328;10.096;2024-02-28T12:17:13;44.87;;;21.77;;
45548;SDS011;31270;48.328;10.096;2024-02-28T12:19:42;44.57;;;22.63;;
45548;SDS011;31270;48.328;10.096;2024-02-28T12:22:08;57.47;;;30.53;;
45548;SDS011;31270;48.328;10.096;2024-02-28T12:24:34;48.10;;;24.50;;
45548;SDS011;31270;48.328;10.096;2024-02-28T12:27:00;49.20;;;21.93;;
45548;SDS011;31270;48.328;10.096;2024-02-28T12:29:25;63.00;;;34.30;;
45548;SDS011;31270;48.328;10.096;2024-02-28T12:31:51;48.57;;;25.23;;
45548;SDS011;31270;48.328;10.096;2024-02-28T12:34:16;44.63;;;21.17;;
45548;SDS011;31270;48.328;10.096;2024-02-28T12:36:42;55.47;;;28.73;;
45548;SDS011;31270;48.328;10.096;2024-02-28T12:39:08;61.13;;;34.57;;
45548;SDS011;31270;48.328;10.096;2024-02-28T12:41:37;48.83;;;25.03;;
45548;SDS011;31270;48.328;10.096;2024-02-28T12:44:03;46.63;;;22.37;;
45548;SDS011;31270;48.328;10.096;2024-02-28T12:46:35;44.33;;;22.93;;
45548;SDS011;31270;48.328;10.096;2024-02-28T12:49:01;49.97;;;27.23;;
45548;SDS011;31270;48.328;10.096;2024-02-28T12:51:42;42.73;;;21.63;;
45548;SDS011;31270;48.328;10.096;2024-02-28T12:54:13;42.87;;;20.43;;
45548;SDS011;31270;48.328;10.096;2024-02-28T12:56:41;45.77;;;26.50;;
45548;SDS011;31270;48.328;10.096;2024-02-28T12:59:10;42.23;;;20.87;;
45548;SDS011;31270;48.328;10.096;2024-02-28T13:01:36;46.67;;;23.33;;
45548;SDS011;31270;48.328;10.096;2024-02-28T13:04:02;50.13;;;24.60;;
45548;SDS011;31270;48.328;10.096;2024-02-28T13:06:28;43.20;;;20.87;;
45548;SDS011;31270;48.328;10.096;2024-02-28T13:08:53;46.53;;;24.50;;
45548;SDS011;31270;48.328;10.096;2024-02-28T13:11:21;48.93;;;24.47;;
45548;SDS011;31270;48.328;10.096;2024-02-28T13:13:48;46.90;;;24.70;;
45548;SDS011;31270;48.328;10.096;2024-02-28T13:16:15;49.20;;;24.53;;
45548;SDS011;31270;48.328;10.096;2024-02-28T13:18:41;48.60;;;23.10;;
45548;SDS011;31270;48.328;10.096;2024-02-28T13:21:07;49.23;;;22.67;;
45548;SDS011;31270;48.328;10.096;2024-02-28T13:23:34;48.00;;;24.67;;
45548;SDS011;31270;48.328;10.096;2024-02-28T13:26:00;44.70;;;23.53;;
45548;SDS011;31270;48.328;10.096;2024-02-28T13:28:26;38.93;;;20.57;;
45548;SDS011;31270;48.328;10.096;2024-02-28T13:30:59;41.60;;;21.20;;
45548;SDS011;31270;48.328;10.096;2024-02-28T13:33:25;40.80;;;21.30;;
45548;SDS011;31270;48.328;10.096;2024-02-28T13:35:53;46.37;;;23.97;;
45548;SDS011;31270;48.328;10.096;2024-02-28T13:38:19;42.87;;;20.90;;
45548;SDS011;31270;48.328;10.096;2024-02-28T13:40:46;40.87;;;20.77;;
45548;SDS011;31270;48.328;10.096;2024-02-28T13:46:34;41.40;;;21.47;;
45548;SDS011;31270;48.328;10.096;2024-02-28T13:49:00;47.10;;;21.80;;
45548;SDS011;31270;48.328;10.096;2024-02-28T13:51:25;42.80;;;22.50;;
45548;SDS011;31270;48.328;10.096;2024-02-28T13:53:51;44.40;;;21.37;;
45548;SDS011;31270;48.328;10.096;2024-02-28T13:56:19;45.40;;;22.43;;
45548;SDS011;31270;48.328;10.096;2024-02-28T13:58:44;41.03;;;21.90;;
45548;SDS011;31270;48.328;10.096;2024-02-28T14:01:11;43.67;;;22.07;;
45548;SDS011;31270;48.328;10.096;2024-02-28T14:03:37;44.00;;;20.93;;
45548;SDS011;31270;48.328;10.096;2024-02-28T14:06:03;46.17;;;25.97;;
45548;SDS011;31270;48.328;10.096;2024-02-28T14:08:29;65.67;;;34.63;;
45548;SDS011;31270;48.328;10.096;2024-02-28T14:10:55;48.30;;;22.83;;